Time;durP1;ratioP1;P1;durP2;ratioP2;P2;SDS_P1;SDS_P2;PMS_P1;PMS_P2;Temp;Humidity;BMP_temperature;BMP_pressure;BME280_temperature;BME280_humidity;BME280_pressure;Samples;Min_cycle;Max_cycle;Signal;HPM_P1;HPM_P2
2022/06/30 00:00:36;;;;;;;10.33;9.63;;;19.20;99.90;;;;;;4997367;28;20575;-93
2022/06/30 00:03:18;;;;;;;11.10;10.20;;;19.20;99.90;;;;;;4999539;28;20472;-95
2022/06/30 00:05:44;;;;;;;11.40;10.50;;;19.20;99.90;;;;;;4995851;28;20447;-96
2022/06/30 00:08:09;;;;;;;10.73;9.77;;;19.30;99.90;;;;;;4996127;28;20451;-96
2022/06/30 00:10:37;;;;;;;10.40;9.70;;;19.40;99.90;;;;;;4999775;28;20428;-96
2022/06/30 00:13:03;;;;;;;11.63;10.63;;;19.40;99.90;;;;;;5015640;28;20184;-94
2022/06/30 00:15:29;;;;;;;10.53;9.70;;;19.30;99.90;;;;;;4997748;28;20451;-93
2022/06/30 00:17:54;;;;;;;11.07;10.27;;;19.30;99.90;;;;;;5015327;28;20334;-96
2022/06/30 00:20:20;;;;;;;11.30;10.30;;;19.30;99.90;;;;;;5019170;28;20204;-95
2022/06/30 00:22:46;;;;;;;11.40;10.40;;;19.10;99.90;;;;;;5016155;28;20205;-95
2022/06/30 00:25:13;;;;;;;11.93;10.83;;;19.10;99.90;;;;;;5017644;28;20199;-93
2022/06/30 00:27:41;;;;;;;12.50;11.60;;;19.10;99.90;;;;;;5022554;28;20405;-94
2022/06/30 00:30:08;;;;;;;10.87;9.87;;;19.00;99.90;;;;;;5002511;28;21095;-95
2022/06/30 00:32:33;;;;;;;11.13;10.23;;;19.10;99.90;;;;;;4996536;28;20468;-96
2022/06/30 00:34:59;;;;;;;11.87;10.87;;;19.00;99.90;;;;;;5016403;28;20459;-96
2022/06/30 00:37:24;;;;;;;11.10;10.30;;;19.00;99.90;;;;;;5003020;28;20189;-95
2022/06/30 00:39:50;;;;;;;10.60;9.90;;;19.30;99.90;;;;;;5000736;28;20274;-95
2022/06/30 00:42:18;;;;;;;11.17;10.27;;;19.00;99.90;;;;;;4996883;28;20274;-96
2022/06/30 00:44:46;;;;;;;12.60;10.80;;;19.20;99.90;;;;;;5002631;28;20547;-95
2022/06/30 00:47:12;;;;;;;11.13;10.17;;;18.90;99.90;;;;;;4994960;28;20905;-95
2022/06/30 00:49:38;;;;;;;12.13;11.17;;;19.10;99.90;;;;;;4994688;28;20499;-96
2022/06/30 00:52:08;;;;;;;11.93;11.03;;;19.00;99.90;;;;;;5001690;28;20189;-96
2022/06/30 00:54:37;;;;;;;11.60;10.70;;;18.90;99.90;;;;;;5010846;28;20184;-96
2022/06/30 00:57:04;;;;;;;11.93;10.83;;;18.80;99.90;;;;;;5012191;28;20455;-95
2022/06/30 00:59:33;;;;;;;10.87;9.97;;;18.90;99.90;;;;;;4995098;28;20445;-93
2022/06/30 01:02:01;;;;;;;12.00;11.00;;;18.80;99.90;;;;;;4979915;28;20447;-93
2022/06/30 01:04:33;;;;;;;11.80;10.90;;;19.20;99.90;;;;;;4994054;28;20471;-95
2022/06/30 01:07:00;;;;;;;11.77;10.90;;;18.00;99.90;;;;;;4997778;28;20451;-93
2022/06/30 01:12:43;;;;;;;11.40;10.40;;;18.50;99.90;;;;;;4970668;28;20431;-94
2022/06/30 01:15:35;;;;;;;12.30;11.17;;;18.90;99.90;;;;;;4981135;28;20483;-93
2022/06/30 01:18:01;;;;;;;12.30;11.20;;;18.90;99.90;;;;;;4998953;28;20456;-95
2022/06/30 01:20:29;;;;;;;13.00;11.87;;;20.40;99.90;;;;;;4982452;28;20690;-93
2022/06/30 01:22:56;;;;;;;13.10;11.97;;;19.70;99.90;;;;;;4996379;28;20212;-95
2022/06/30 01:25:54;;;;;;;11.17;10.23;;;19.00;99.90;;;;;;4998580;28;20528;-94
2022/06/30 01:28:25;;;;;;;12.07;10.87;;;18.90;99.90;;;;;;5016903;28;20449;-94
2022/06/30 01:30:53;;;;;;;12.00;11.10;;;19.00;99.90;;;;;;4997523;28;20444;-96
2022/06/30 01:33:21;;;;;;;11.50;10.33;;;18.60;99.90;;;;;;4997689;28;20880;-95
2022/06/30 04:14:00;;;;;;;11.97;10.87;;;17.70;99.90;;;;;;4948983;28;20475;-90
2022/06/30 04:16:26;;;;;;;12.27;11.20;;;17.60;99.90;;;;;;4931107;28;20480;-89
2022/06/30 04:18:53;;;;;;;12.90;11.53;;;17.60;99.90;;;;;;4941148;28;20187;-88
2022/06/30 04:21:18;;;;;;;11.83;10.73;;;17.50;99.90;;;;;;4935087;28;20237;-90
2022/06/30 04:24:08;;;;;;;12.57;11.67;;;17.50;99.90;;;;;;4937263;28;20478;-88
2022/06/30 04:26:33;;;;;;;11.63;10.73;;;17.70;99.90;;;;;;4934348;28;20548;-92
2022/06/30 04:28:59;;;;;;;12.43;11.20;;;17.80;99.90;;;;;;4940511;28;20453;-90
2022/06/30 04:34:08;;;;;;;14.70;11.60;;;17.80;99.90;;;;;;4961216;28;20201;-90
2022/06/30 04:36:34;;;;;;;12.30;11.20;;;17.80;99.90;;;;;;4945136;28;20437;-91
2022/06/30 04:38:59;;;;;;;11.90;11.07;;;17.80;99.90;;;;;;4940260;28;20210;-90
2022/06/30 04:41:25;;;;;;;11.67;10.77;;;17.90;99.90;;;;;;4947381;28;20191;-92
2022/06/30 04:44:00;;;;;;;12.37;11.33;;;18.70;99.90;;;;;;4937373;28;20289;-92
2022/06/30 04:46:50;;;;;;;12.13;11.00;;;19.00;99.90;;;;;;4944637;28;20178;-96
2022/06/30 04:49:16;;;;;;;12.00;11.00;;;18.70;99.90;;;;;;4960876;28;20469;-96
2022/06/30 04:51:46;;;;;;;11.90;11.00;;;20.10;99.90;;;;;;4980790;28;20416;-96
2022/06/30 04:54:17;;;;;;;11.00;10.00;;;19.40;99.90;;;;;;4966693;28;20460;-93
2022/06/30 04:56:53;;;;;;;12.90;11.80;;;17.30;99.90;;;;;;4964894;28;20206;-96
2022/06/30 04:59:18;;;;;;;12.37;11.27;;;18.80;99.90;;;;;;4966401;28;20457;-96
2022/06/30 06:45:41;;;;;;;11.33;10.37;;;21.00;99.90;;;;;;4771467;26;20769;-93
2022/06/30 06:48:09;;;;;;;9.80;8.97;;;21.30;99.90;;;;;;4972469;28;20452;-94
2022/06/30 06:50:34;;;;;;;10.40;9.70;;;21.10;99.90;;;;;;4960148;28;20450;-94
2022/06/30 06:53:00;;;;;;;10.00;9.20;;;22.00;99.90;;;;;;4978940;28;20457;-95
2022/06/30 06:55:30;;;;;;;10.73;9.93;;;21.10;99.90;;;;;;4975229;28;20197;-95
2022/06/30 06:58:01;;;;;;;10.57;9.67;;;21.40;99.90;;;;;;4963593;28;20190;-94
2022/06/30 07:07:39;;;;;;;10.40;9.60;;;20.90;99.90;;;;;;5062980;23;20501;-94
2022/06/30 07:10:37;;;;;;;9.03;8.43;;;22.80;99.90;;;;;;4962913;28;20445;-93
2022/06/30 07:13:03;;;;;;;9.27;8.60;;;22.10;99.90;;;;;;4968696;28;23481;-94
2022/06/30 07:15:52;;;;;;;9.53;8.83;;;23.40;99.90;;;;;;4957118;28;20447;-93
2022/06/30 07:28:42;;;;;;;9.87;8.97;;;22.00;99.90;;;;;;5010163;28;20477;-96
2022/06/30 07:31:08;;;;;;;10.50;9.70;;;22.00;99.90;;;;;;5009577;28;20433;-96
2022/06/30 07:41:23;;;;;;;9.80;9.10;;;22.60;99.90;;;;;;4989365;28;20477;-95
2022/06/30 07:43:51;;;;;;;9.77;9.07;;;23.10;99.90;;;;;;4991959;28;20536;-95
2022/06/30 07:46:29;;;;;;;9.30;8.40;;;22.90;99.90;;;;;;4975879;28;20564;-93
2022/06/30 07:48:57;;;;;;;9.40;8.53;;;22.70;99.90;;;;;;4961544;28;20437;-93
2022/06/30 07:51:22;;;;;;;8.73;8.23;;;24.30;99.90;;;;;;4956746;28;20449;-91
2022/06/30 07:53:48;;;;;;;8.93;7.70;;;23.70;99.90;;;;;;4959674;28;20190;-93
2022/06/30 07:56:14;;;;;;;9.27;8.57;;;23.50;99.90;;;;;;4959184;28;20655;-93
2022/06/30 07:58:40;;;;;;;9.80;9.10;;;23.00;99.90;;;;;;4954653;28;22732;-93
2022/06/30 08:01:09;;;;;;;10.17;9.40;;;23.90;99.90;;;;;;4956440;28;20540;-93
2022/06/30 08:03:35;;;;;;;9.20;8.57;;;23.80;99.90;;;;;;4951853;28;20227;-93
2022/06/30 08:06:01;;;;;;;9.53;8.60;;;24.30;99.90;;;;;;4963420;28;20433;-93
2022/06/30 08:08:27;;;;;;;8.87;8.17;;;24.60;99.90;;;;;;4960048;28;20456;-92
2022/06/30 08:11:03;;;;;;;9.73;8.90;;;24.80;99.90;;;;;;4960721;28;20633;-93
2022/06/30 08:13:29;;;;;;;9.97;9.27;;;24.90;99.90;;;;;;4978332;28;20460;-92
2022/06/30 08:15:55;;;;;;;9.63;8.83;;;24.50;99.90;;;;;;4956281;28;20433;-91
2022/06/30 08:18:20;;;;;;;9.60;8.90;;;24.50;99.90;;;;;;4953557;28;20194;-93
2022/06/30 08:21:09;;;;;;;10.00;9.27;;;24.60;99.90;;;;;;4953956;28;20179;-94
2022/06/30 08:23:35;;;;;;;9.37;8.77;;;24.70;99.90;;;;;;4955933;28;20871;-92
2022/06/30 08:26:01;;;;;;;9.87;8.77;;;25.30;99.90;;;;;;4960045;28;20437;-93
2022/06/30 08:28:27;;;;;;;10.60;9.57;;;25.70;99.90;;;;;;4963045;28;20608;-92
2022/06/30 08:30:52;;;;;;;8.73;8.03;;;25.30;99.90;;;;;;4956109;28;20190;-93
2022/06/30 08:33:18;;;;;;;10.70;9.80;;;25.50;99.90;;;;;;4951911;28;20289;-91
2022/06/30 08:35:44;;;;;;;8.93;8.30;;;25.20;99.90;;;;;;4949731;28;20225;-92
2022/06/30 08:38:09;;;;;;;8.17;7.40;;;25.40;99.90;;;;;;4955274;28;20790;-92
2022/06/30 08:43:25;;;;;;;8.53;7.70;;;25.80;99.90;;;;;;4957948;28;20269;-90
2022/06/30 08:45:53;;;;;;;8.27;7.60;;;26.20;99.90;;;;;;4944444;28;21117;-90
2022/06/30 08:48:18;;;;;;;8.13;7.40;;;25.60;99.90;;;;;;4950744;28;20567;-91
2022/06/30 08:50:49;;;;;;;9.77;7.03;;;26.20;99.90;;;;;;4958791;28;20963;-92
2022/06/30 08:53:23;;;;;;;7.57;6.97;;;25.80;99.90;;;;;;4965308;28;20186;-91
2022/06/30 08:56:09;;;;;;;6.40;6.00;;;26.70;99.90;;;;;;4964357;28;20532;-91
2022/06/30 08:58:39;;;;;;;8.33;7.60;;;26.20;99.90;;;;;;4964731;28;20524;-93
2022/06/30 09:25:15;;;;;;;7.43;6.73;;;26.90;99.90;;;;;;4989211;28;20482;-94
2022/06/30 09:27:43;;;;;;;6.80;6.10;;;27.00;99.90;;;;;;4990566;28;20448;-91
2022/06/30 09:30:14;;;;;;;6.60;6.17;;;27.10;99.90;;;;;;4992622;28;20441;-95
2022/06/30 09:33:20;;;;;;;6.47;6.07;;;27.30;99.90;;;;;;5005565;28;20453;-94
2022/06/30 09:35:51;;;;;;;7.17;6.57;;;27.20;99.90;;;;;;4927416;29;20439;-96
2022/06/30 09:38:17;;;;;;;6.87;6.40;;;27.80;99.90;;;;;;4975301;28;20441;-96
2022/06/30 09:41:04;;;;;;;7.03;6.47;;;27.50;99.90;;;;;;4998535;28;20592;-96
2022/06/30 09:43:34;;;;;;;6.87;6.27;;;26.90;99.90;;;;;;4990806;28;20567;-96
2022/06/30 09:46:06;;;;;;;7.33;6.67;;;27.40;99.90;;;;;;4982668;28;20452;-96
2022/06/30 09:48:39;;;;;;;7.17;6.57;;;27.70;99.90;;;;;;4984445;28;20445;-95
2022/06/30 09:51:05;;;;;;;7.50;6.90;;;27.70;99.90;;;;;;4989746;28;20459;-95
2022/06/30 09:53:30;;;;;;;7.63;7.03;;;28.70;99.90;;;;;;4983672;28;20450;-95
2022/06/30 09:56:14;;;;;;;7.33;6.73;;;28.20;99.90;;;;;;4966538;28;20248;-96
2022/06/30 09:58:50;;;;;;;7.07;6.47;;;27.90;99.90;;;;;;4992745;28;20193;-95
2022/06/30 10:01:18;;;;;;;7.03;6.53;;;28.10;99.90;;;;;;4966486;28;20433;-94
2022/06/30 10:03:59;;;;;;;6.60;6.13;;;28.70;99.90;;;;;;4994786;28;20567;-96
2022/06/30 10:06:39;;;;;;;7.07;6.50;;;29.00;99.90;;;;;;4963549;28;21143;-93
2022/06/30 10:09:29;;;;;;;8.50;6.97;;;27.70;98.80;;;;;;4958914;28;20450;-96
2022/06/30 10:11:55;;;;;;;8.50;6.97;;;27.60;99.70;;;;;;4958214;28;20444;-94
2022/06/30 10:14:22;;;;;;;6.87;6.37;;;27.10;99.90;;;;;;4972749;28;20442;-95
2022/06/30 10:16:47;;;;;;;7.27;6.60;;;28.00;99.90;;;;;;4964814;28;20434;-93
2022/06/30 10:19:22;;;;;;;7.00;6.50;;;28.50;99.90;;;;;;4979634;28;20438;-96
2022/06/30 10:21:56;;;;;;;7.20;6.50;;;29.10;98.10;;;;;;4965450;28;20210;-96
2022/06/30 10:24:23;;;;;;;7.20;6.60;;;28.40;97.40;;;;;;4958610;28;20938;-95
2022/06/30 10:29:34;;;;;;;6.97;6.23;;;28.80;99.30;;;;;;4963839;28;20469;-95
2022/06/30 10:32:11;;;;;;;6.70;6.10;;;29.00;99.70;;;;;;4966572;28;20438;-95
2022/06/30 10:34:42;;;;;;;6.83;6.30;;;29.20;98.10;;;;;;4975910;28;20971;-95
2022/06/30 10:37:34;;;;;;;6.90;5.87;;;29.20;97.70;;;;;;4957319;28;20441;-96
2022/06/30 10:40:08;;;;;;;7.37;6.50;;;29.10;99.50;;;;;;4965299;28;20464;-95
2022/06/30 10:42:46;;;;;;;7.30;6.60;;;29.00;98.10;;;;;;4964594;28;20460;-94
2022/06/30 10:45:30;;;;;;;6.60;6.10;;;29.20;98.40;;;;;;4965001;28;20473;-96
2022/06/30 10:48:02;;;;;;;6.63;6.13;;;29.20;98.70;;;;;;4976297;28;20439;-96
2022/06/30 10:50:50;;;;;;;6.57;6.10;;;29.20;97.90;;;;;;4975912;28;20438;-95
2022/06/30 10:53:37;;;;;;;6.57;6.07;;;29.20;96.20;;;;;;4971813;28;21003;-96
2022/06/30 10:56:03;;;;;;;6.47;6.03;;;28.60;96.00;;;;;;4969652;28;20963;-95
2022/06/30 10:58:29;;;;;;;6.27;5.40;;;28.80;97.60;;;;;;4962057;28;20454;-95
2022/06/30 11:01:00;;;;;;;6.33;5.93;;;29.10;98.50;;;;;;4967005;28;20450;-96
2022/06/30 11:03:45;;;;;;;6.07;5.60;;;29.30;97.20;;;;;;4987868;28;20205;-96
2022/06/30 11:06:13;;;;;;;6.97;6.37;;;29.60;97.00;;;;;;4984331;28;20534;-96
2022/06/30 11:08:57;;;;;;;8.30;5.70;;;29.80;94.80;;;;;;4970394;28;20432;-95
2022/06/30 11:11:23;;;;;;;6.70;6.20;;;30.00;96.70;;;;;;5043330;23;20544;-96
2022/06/30 11:53:03;;;;;;;5.57;5.17;;;30.90;93.80;;;;;;5224157;23;21161;-96
2022/06/30 12:17:36;;;;;;;6.20;5.70;;;31.00;92.90;;;;;;6054804;23;21394;-96
2022/06/30 12:22:45;;;;;;;5.87;5.40;;;30.50;93.00;;;;;;5499046;23;20509;-96
2022/06/30 12:38:16;;;;;;;5.40;4.90;;;31.70;89.60;;;;;;4688186;26;20999;-95
2022/06/30 12:40:41;;;;;;;5.50;5.10;;;30.40;90.10;;;;;;4948902;28;20454;-94
2022/06/30 12:43:07;;;;;;;6.10;5.57;;;30.30;90.50;;;;;;4947676;28;20443;-96
2022/06/30 12:45:44;;;;;;;5.43;4.93;;;30.50;91.30;;;;;;4963197;28;20222;-96
2022/06/30 12:48:11;;;;;;;6.40;5.63;;;30.90;91.20;;;;;;4946985;28;20179;-96
2022/06/30 12:50:44;;;;;;;5.73;5.30;;;31.20;88.00;;;;;;4953734;28;20429;-96
2022/06/30 12:53:22;;;;;;;6.07;5.43;;;30.90;90.30;;;;;;4954578;28;20497;-95
2022/06/30 12:56:06;;;;;;;5.80;5.30;;;31.40;91.10;;;;;;4979575;28;20983;-96
2022/06/30 12:58:48;;;;;;;13.20;6.13;;;31.70;91.50;;;;;;4983086;28;20517;-96
2022/06/30 13:01:19;;;;;;;5.97;5.43;;;32.60;90.30;;;;;;4949184;28;20446;-95
2022/06/30 13:04:08;;;;;;;5.77;5.20;;;32.60;85.30;;;;;;4944922;28;20525;-95
2022/06/30 13:06:36;;;;;;;6.67;6.10;;;32.20;89.70;;;;;;4976880;28;20449;-96
2022/06/30 13:09:08;;;;;;;5.80;5.40;;;32.30;87.20;;;;;;4962450;29;20453;-96
2022/06/30 13:11:40;;;;;;;7.00;5.90;;;33.00;89.70;;;;;;4965443;28;20455;-96
2022/06/30 13:14:06;;;;;;;6.27;5.60;;;33.50;90.50;;;;;;4967110;28;20441;-96
2022/06/30 13:21:47;;;;;;;5.70;5.37;;;33.90;77.70;;;;;;5544027;23;20493;-95
2022/06/30 13:26:48;;;;;;;5.70;5.30;;;34.00;82.40;;;;;;5337328;23;20878;-96
2022/06/30 13:29:16;;;;;;;5.10;4.80;;;34.00;84.90;;;;;;5384024;23;20487;-96
2022/06/30 13:31:55;;;;;;;;;;;;;;;;;;;;;
2022/06/30 13:34:32;;;;;;;6.70;5.60;;;37.00;90.50;;;;;;5229425;23;20497;-95
2022/06/30 13:36:58;;;;;;;6.47;5.97;;;34.70;84.70;;;;;;5246248;23;20237;-96
2022/06/30 13:57:31;;;;;;;6.07;5.57;;;34.40;85.40;;;;;;5132016;23;20227;-96
2022/06/30 13:59:56;;;;;;;5.27;4.83;;;35.40;82.20;;;;;;4968659;29;20186;-96
2022/06/30 14:02:22;;;;;;;7.73;5.80;;;37.10;82.70;;;;;;4948773;28;20208;-91
2022/06/30 14:04:47;;;;;;;5.60;5.20;;;36.70;82.70;;;;;;4941449;28;20209;-95
2022/06/30 14:07:16;;;;;;;5.97;5.67;;;37.50;86.60;;;;;;4961039;28;20214;-96
2022/06/30 14:09:42;;;;;;;7.27;5.60;;;36.00;81.60;;;;;;4952624;29;20272;-96
2022/06/30 14:12:08;;;;;;;5.67;5.27;;;37.40;81.40;;;;;;4964635;28;20170;-96
2022/06/30 14:14:34;;;;;;;6.53;5.73;;;37.20;77.70;;;;;;4970486;28;20293;-96
2022/06/30 14:16:59;;;;;;;5.47;4.90;;;35.90;79.70;;;;;;4954159;29;20187;-95
2022/06/30 14:19:25;;;;;;;5.97;5.47;;;34.20;83.00;;;;;;4957109;28;20190;-96
2022/06/30 14:21:52;;;;;;;5.87;5.37;;;33.20;83.60;;;;;;4970439;28;20191;-96
2022/06/30 14:28:04;;;;;;;6.70;6.17;;;31.20;89.40;;;;;;5285973;23;20606;-96
2022/06/30 14:38:12;;;;;;;7.17;5.73;;;29.30;93.80;;;;;;4994844;28;20469;-94
2022/06/30 14:43:14;;;;;;;5.80;5.40;;;29.00;92.70;;;;;;4987139;28;20809;-95
2022/06/30 14:45:52;;;;;;;6.67;6.20;;;30.90;95.10;;;;;;5085163;23;20494;-96
2022/06/30 14:50:56;;;;;;;5.77;5.37;;;28.70;92.30;;;;;;5484314;23;20494;-96
2022/06/30 14:53:25;;;;;;;7.53;6.97;;;29.60;95.20;;;;;;5014439;28;20443;-96
2022/06/30 14:55:51;;;;;;;7.20;6.60;;;28.20;99.60;;;;;;5018627;28;20439;-96
2022/06/30 14:58:16;;;;;;;8.10;7.00;;;29.10;99.90;;;;;;5016484;28;20467;-95
2022/06/30 15:00:42;;;;;;;7.13;6.53;;;28.00;99.90;;;;;;5007882;28;20275;-94
2022/06/30 15:03:08;;;;;;;7.47;6.87;;;28.50;99.90;;;;;;5006632;28;20192;-96
2022/06/30 15:05:41;;;;;;;6.77;6.17;;;28.00;99.90;;;;;;5007658;28;20702;-96
2022/06/30 15:08:06;;;;;;;13.43;7.50;;;27.30;99.90;;;;;;5004097;28;20207;-94
2022/06/30 15:10:32;;;;;;;6.97;6.37;;;26.80;99.90;;;;;;5011834;28;20551;-95
2022/06/30 15:12:57;;;;;;;7.00;6.50;;;27.60;99.90;;;;;;5021205;28;20181;-95
2022/06/30 15:15:23;;;;;;;6.97;6.30;;;26.80;99.90;;;;;;5026538;28;20188;-96
2022/06/30 15:20:27;;;;;;;7.17;6.67;;;26.70;99.90;;;;;;5340591;22;20241;-96
2022/06/30 15:25:57;;;;;;;11.00;5.90;;;27.00;99.90;;;;;;5048871;28;20475;-95
2022/06/30 15:28:22;;;;;;;10.97;7.70;;;26.30;99.90;;;;;;5057771;28;20872;-95
2022/06/30 15:30:48;;;;;;;19.80;10.27;;;24.90;99.90;;;;;;5054426;28;20445;-94
2022/06/30 15:33:14;;;;;;;14.07;10.83;;;22.70;99.90;;;;;;5047149;28;20211;-93
2022/06/30 15:35:39;;;;;;;11.93;10.93;;;21.10;99.90;;;;;;5053508;28;20193;-94
2022/06/30 15:38:05;;;;;;;13.07;11.83;;;20.20;99.90;;;;;;5042121;28;20176;-90
2022/06/30 15:40:30;;;;;;;14.83;13.63;;;18.70;99.90;;;;;;5037900;28;20196;-89
2022/06/30 15:42:56;;;;;;;17.80;16.30;;;18.00;99.90;;;;;;5037501;28;20414;-92
2022/06/30 15:45:24;;;;;;;17.00;15.40;;;18.40;99.90;;;;;;5042794;28;20190;-92
2022/06/30 15:47:51;;;;;;;16.87;15.27;;;18.80;99.90;;;;;;5029716;28;20719;-96
2022/06/30 15:50:17;;;;;;;15.60;14.00;;;18.80;99.90;;;;;;5064077;28;20453;-95
2022/06/30 15:52:43;;;;;;;14.40;12.70;;;19.10;99.90;;;;;;5058925;28;20454;-91
2022/06/30 15:55:10;;;;;;;14.20;12.90;;;19.40;99.90;;;;;;5042614;28;24562;-96
2022/06/30 15:57:39;;;;;;;13.57;12.37;;;19.90;99.90;;;;;;5037789;28;20187;-96
2022/06/30 16:00:16;;;;;;;15.47;14.27;;;19.90;99.90;;;;;;5103814;23;20500;-95
2022/06/30 16:07:56;;;;;;;17.27;15.70;;;19.90;99.90;;;;;;5567305;22;20478;-95
2022/06/30 16:10:24;;;;;;;13.30;12.10;;;20.00;99.90;;;;;;5010362;28;20436;-94
2022/06/30 16:12:50;;;;;;;13.70;12.60;;;20.20;99.90;;;;;;4994610;28;20459;-96
2022/06/30 16:15:18;;;;;;;14.23;12.63;;;21.20;99.90;;;;;;4979367;28;20432;-95
2022/06/30 16:17:43;;;;;;;14.53;13.40;;;19.90;99.90;;;;;;4981444;28;20451;-91
2022/06/30 16:20:09;;;;;;;14.37;13.17;;;20.20;99.90;;;;;;4978097;28;20270;-90
2022/06/30 16:22:41;;;;;;;14.37;13.00;;;20.70;99.90;;;;;;4980087;28;20685;-94
2022/06/30 16:25:07;;;;;;;14.77;13.67;;;21.40;99.90;;;;;;4976790;28;20485;-90
2022/06/30 16:27:34;;;;;;;15.27;14.00;;;20.50;99.90;;;;;;4980094;28;20519;-92
2022/06/30 16:29:59;;;;;;;14.03;12.93;;;20.40;99.90;;;;;;4984145;28;20840;-93
2022/06/30 16:32:25;;;;;;;15.00;13.80;;;20.50;99.90;;;;;;4976113;28;20452;-92
2022/06/30 16:34:51;;;;;;;13.50;12.30;;;20.50;99.90;;;;;;4978045;28;20185;-93
2022/06/30 16:37:24;;;;;;;13.80;12.80;;;20.50;99.90;;;;;;4981734;28;21060;-93
2022/06/30 16:39:49;;;;;;;16.77;13.00;;;20.70;99.90;;;;;;4986606;28;20235;-93
2022/06/30 16:42:15;;;;;;;13.90;12.67;;;20.50;99.90;;;;;;4986459;28;21427;-92
2022/06/30 16:44:42;;;;;;;14.50;13.00;;;20.60;99.90;;;;;;4984166;28;20189;-92
2022/06/30 16:47:10;;;;;;;14.10;12.90;;;20.80;99.90;;;;;;4978739;28;20687;-94
2022/06/30 16:49:35;;;;;;;14.97;13.43;;;20.90;99.90;;;;;;4976341;28;20513;-90
2022/06/30 16:52:06;;;;;;;14.37;13.07;;;20.80;99.90;;;;;;4977496;28;20452;-92
2022/06/30 16:54:31;;;;;;;13.70;12.70;;;20.90;99.90;;;;;;4995503;28;20192;-92
2022/06/30 16:57:00;;;;;;;13.57;12.37;;;20.80;99.90;;;;;;4983385;28;20458;-93
2022/06/30 16:59:26;;;;;;;13.70;12.50;;;21.00;99.90;;;;;;4976018;28;20348;-91
2022/06/30 17:01:53;;;;;;;14.73;13.30;;;20.90;99.90;;;;;;4979304;28;20758;-92
2022/06/30 17:04:30;;;;;;;11.70;10.80;;;20.80;99.90;;;;;;4985628;28;20476;-96
2022/06/30 17:06:56;;;;;;;10.23;9.33;;;21.10;99.90;;;;;;4982685;28;20807;-94
2022/06/30 17:09:22;;;;;;;10.70;9.70;;;21.50;99.90;;;;;;4981274;28;20444;-93
2022/06/30 17:11:48;;;;;;;11.47;10.57;;;22.40;99.90;;;;;;4977452;28;20733;-92
2022/06/30 17:14:14;;;;;;;11.30;10.40;;;22.80;99.90;;;;;;4985456;28;20515;-92
2022/06/30 17:16:43;;;;;;;11.17;10.17;;;23.50;99.90;;;;;;4983623;28;20473;-94
2022/06/30 17:19:42;;;;;;;10.30;9.40;;;24.40;99.90;;;;;;4980638;28;20474;-95
2022/06/30 17:22:09;;;;;;;9.47;8.47;;;25.20;99.90;;;;;;4982067;28;20801;-96
2022/06/30 17:24:35;;;;;;;9.00;8.30;;;25.80;99.90;;;;;;4967007;28;20455;-93
2022/06/30 17:27:00;;;;;;;9.57;8.73;;;26.90;99.90;;;;;;4969430;28;20838;-93
2022/06/30 17:29:27;;;;;;;8.43;7.73;;;28.40;99.90;;;;;;4969445;28;21399;-93
2022/06/30 17:32:08;;;;;;;8.23;7.63;;;30.20;99.90;;;;;;4976898;28;20216;-95
2022/06/30 17:34:34;;;;;;;8.53;7.93;;;31.60;99.90;;;;;;4973497;28;20486;-92
2022/06/30 17:37:00;;;;;;;8.10;7.60;;;31.60;99.90;;;;;;4974235;28;20530;-91
2022/06/30 17:39:28;;;;;;;9.20;8.30;;;30.70;99.90;;;;;;4970525;28;20435;-92
2022/06/30 17:41:55;;;;;;;11.10;9.30;;;29.00;99.90;;;;;;4978114;28;20480;-96
2022/06/30 17:44:21;;;;;;;10.63;9.73;;;27.30;99.90;;;;;;4974843;28;20981;-94
2022/06/30 17:46:47;;;;;;;10.30;9.50;;;24.80;99.90;;;;;;4975805;28;20480;-92
2022/06/30 17:49:14;;;;;;;10.90;9.90;;;23.50;99.90;;;;;;4974636;28;20440;-89
2022/06/30 17:51:40;;;;;;;10.43;9.63;;;22.80;99.90;;;;;;4967691;28;20646;-90
2022/06/30 17:54:22;;;;;;;10.10;9.40;;;22.50;99.90;;;;;;4962211;28;20451;-92
2022/06/30 17:56:49;;;;;;;10.70;9.67;;;22.60;99.90;;;;;;4971581;28;20447;-94
2022/06/30 17:59:18;;;;;;;10.93;10.00;;;23.10;99.90;;;;;;4980149;28;20501;-95
2022/06/30 18:01:44;;;;;;;10.90;9.90;;;22.50;99.90;;;;;;4991607;28;20462;-89
2022/06/30 18:04:10;;;;;;;10.20;9.23;;;22.80;99.90;;;;;;4975278;28;20443;-92
2022/06/30 18:12:04;;;;;;;8.77;8.07;;;21.70;99.90;;;;;;4993856;28;20436;-91
2022/06/30 18:14:30;;;;;;;9.97;9.03;;;21.70;99.90;;;;;;4972879;28;20850;-92
2022/06/30 18:17:19;;;;;;;8.70;8.00;;;22.00;99.90;;;;;;4977044;28;20189;-93
2022/06/30 18:20:08;;;;;;;8.40;7.60;;;21.90;99.90;;;;;;4977210;28;20793;-93
2022/06/30 18:22:35;;;;;;;8.27;7.47;;;21.90;99.90;;;;;;4978273;28;20446;-93
2022/06/30 18:25:04;;;;;;;7.43;6.90;;;22.00;99.90;;;;;;4991943;28;21559;-91
2022/06/30 18:27:30;;;;;;;7.60;6.90;;;21.70;99.90;;;;;;4974547;28;20488;-93
2022/06/30 18:29:58;;;;;;;8.20;6.60;;;21.80;99.90;;;;;;4979254;28;20455;-92
2022/06/30 18:32:28;;;;;;;6.50;6.10;;;21.70;99.90;;;;;;4970450;28;20444;-91
2022/06/30 18:34:58;;;;;;;7.20;6.63;;;21.80;99.90;;;;;;4976027;28;20571;-96
2022/06/30 18:37:24;;;;;;;7.00;6.50;;;22.10;99.90;;;;;;4977194;28;20871;-93
2022/06/30 18:40:02;;;;;;;8.40;7.70;;;21.80;99.90;;;;;;4975401;28;20439;-93
2022/06/30 18:42:28;;;;;;;8.27;7.50;;;21.70;99.90;;;;;;4970937;28;20192;-90
2022/06/30 18:44:53;;;;;;;7.80;7.20;;;21.70;99.90;;;;;;4978239;28;20995;-92
2022/06/30 18:47:23;;;;;;;8.47;7.70;;;22.30;99.90;;;;;;4973535;28;22025;-92
2022/06/30 18:49:52;;;;;;;7.70;7.10;;;21.40;99.90;;;;;;4970042;28;20189;-93
2022/06/30 18:52:18;;;;;;;7.13;6.53;;;21.40;99.90;;;;;;4973741;28;20842;-93
2022/06/30 18:54:46;;;;;;;8.57;7.73;;;21.00;99.90;;;;;;4975734;28;20814;-91
2022/06/30 18:57:14;;;;;;;7.37;6.80;;;21.30;99.90;;;;;;4971618;28;21321;-95
2022/06/30 18:59:40;;;;;;;9.10;7.57;;;21.30;99.90;;;;;;5119917;23;20502;-93
2022/06/30 19:02:12;;;;;;;12.23;11.20;;;21.10;99.90;;;;;;5022640;28;20437;-96
2022/06/30 19:04:37;;;;;;;11.90;8.40;;;21.00;99.90;;;;;;5017115;28;20239;-96
2022/06/30 19:07:04;;;;;;;9.67;8.83;;;20.80;99.90;;;;;;5548779;22;21510;-94
2022/06/30 19:09:32;;;;;;;8.33;7.67;;;21.40;99.90;;;;;;5004792;28;20661;-94
2022/06/30 19:12:18;;;;;;;7.90;7.17;;;20.40;99.90;;;;;;4989784;28;20454;-94
2022/06/30 19:14:46;;;;;;;7.03;6.27;;;20.30;99.90;;;;;;4992210;28;20450;-93
2022/06/30 19:17:12;;;;;;;7.43;6.73;;;20.40;99.90;;;;;;4996088;28;20497;-94
2022/06/30 19:19:37;;;;;;;7.70;7.10;;;20.70;99.90;;;;;;4996307;28;20538;-92
2022/06/30 19:22:17;;;;;;;8.10;7.40;;;20.70;99.90;;;;;;4995186;28;20183;-94
2022/06/30 19:27:51;;;;;;;11.03;10.20;;;20.70;99.90;;;;;;5024456;28;20509;-94
2022/06/30 19:35:28;;;;;;;8.03;7.23;;;20.20;99.90;;;;;;4623886;23;20495;-92
2022/06/30 19:37:53;;;;;;;7.80;7.10;;;20.20;99.90;;;;;;4997617;28;20452;-91
2022/06/30 19:40:19;;;;;;;10.07;7.83;;;20.00;99.90;;;;;;4998053;28;20187;-91
2022/06/30 19:42:45;;;;;;;10.17;9.00;;;19.70;99.90;;;;;;5002910;28;20200;-93
2022/06/30 19:45:17;;;;;;;10.30;9.23;;;20.20;99.90;;;;;;4994490;28;20185;-91
2022/06/30 19:47:43;;;;;;;10.17;9.17;;;20.10;99.90;;;;;;4982624;28;20235;-90
2022/06/30 19:50:11;;;;;;;10.93;9.83;;;19.30;99.90;;;;;;5011851;28;20491;-92
2022/06/30 19:52:40;;;;;;;10.43;9.53;;;19.50;99.90;;;;;;4991120;28;20244;-89
2022/06/30 19:55:19;;;;;;;11.70;10.80;;;19.30;99.90;;;;;;5011952;28;21044;-92
2022/06/30 19:57:48;;;;;;;12.37;11.27;;;19.50;99.90;;;;;;4989642;28;20443;-90
2022/06/30 20:00:17;;;;;;;13.30;12.10;;;20.10;99.90;;;;;;5002877;28;20447;-91
2022/06/30 20:05:49;;;;;;;11.50;10.40;;;19.30;99.90;;;;;;5023477;28;20486;-90
2022/06/30 20:13:44;;;;;;;10.47;9.57;;;19.70;99.90;;;;;;5002853;28;20510;-91
2022/06/30 20:16:12;;;;;;;9.50;8.63;;;19.50;99.90;;;;;;5002842;28;20447;-91
2022/06/30 20:18:40;;;;;;;10.00;9.10;;;19.40;99.90;;;;;;4989905;28;20535;-92
2022/06/30 20:21:14;;;;;;;10.70;9.80;;;19.60;99.90;;;;;;4999409;28;20444;-91
2022/06/30 20:28:50;;;;;;;9.03;8.27;;;19.70;99.90;;;;;;5070883;23;20484;-94
2022/06/30 20:31:16;;;;;;;9.00;8.17;;;20.10;99.90;;;;;;5002004;28;20436;-92
2022/06/30 20:33:48;;;;;;;9.33;7.40;;;19.50;99.90;;;;;;5004078;28;20204;-93
2022/06/30 20:36:20;;;;;;;7.90;7.30;;;19.30;99.90;;;;;;4997995;28;20248;-93
2022/06/30 20:38:46;;;;;;;7.03;6.33;;;19.10;99.90;;;;;;4997153;28;20452;-91
2022/06/30 20:41:55;;;;;;;5.70;5.30;;;18.80;99.90;;;;;;5004382;28;20503;-90
2022/06/30 20:44:09;;;;;;;7.77;6.97;;;18.80;99.90;;;;;;5011700;28;20411;-91
2022/06/30 20:46:36;;;;;;;6.37;5.87;;;19.10;99.90;;;;;;5003948;28;20502;-92
2022/06/30 20:51:52;;;;;;;5.73;5.27;;;19.40;99.90;;;;;;5018765;28;20443;-92
2022/06/30 20:54:22;;;;;;;6.03;5.47;;;18.30;99.90;;;;;;5014233;28;20432;-93
2022/06/30 20:56:50;;;;;;;5.10;4.80;;;18.40;99.90;;;;;;5001889;28;20451;-92